createdAt,value
2019-01-03T00:00:38.422Z,65.70
2019-01-03T00:04:45.758Z,89.00
2019-01-03T00:08:53.076Z,63.00
2019-01-03T00:13:16.490Z,78.70
2019-01-03T00:17:39.967Z,61.20
2019-01-03T00:21:47.346Z,66.60
2019-01-03T00:25:54.671Z,80.30
2019-01-03T00:30:00.164Z,72.00
2019-01-03T00:34:05.596Z,89.30
2019-01-03T00:38:24.485Z,66.60
2019-01-03T00:42:40.536Z,51.10
2019-01-03T00:46:50.595Z,68.10
2019-01-03T00:51:06.729Z,54.60
2019-01-03T00:55:15.115Z,76.20
2019-01-03T00:59:25.077Z,64.30
2019-01-03T01:03:56.712Z,74.30
2019-01-03T01:08:18.851Z,76.60
2019-01-03T01:12:42.166Z,81.50
2019-01-03T01:16:52.166Z,59.00
2019-01-03T01:21:11.448Z,59.50
2019-01-03T01:25:21.443Z,66.00
2019-01-03T01:29:29.609Z,57.60
2019-01-03T01:33:52.735Z,74.40
2019-01-03T01:38:12.001Z,61.00
2019-01-03T01:42:34.931Z,75.40
2019-01-03T01:46:42.286Z,73.60
2019-01-03T01:50:55.311Z,71.50
2019-01-03T01:55:18.512Z,58.00
2019-01-03T01:59:43.710Z,71.30
2019-01-03T02:03:53.488Z,72.90
2019-01-03T02:08:18.932Z,52.60
2019-01-03T02:12:28.982Z,71.60
2019-01-03T02:16:37.139Z,54.20
2019-01-03T02:20:44.484Z,63.20
2019-01-03T02:24:51.788Z,69.20
2019-01-03T02:28:59.116Z,60.60
2019-01-03T02:33:06.475Z,66.50
2019-01-03T02:37:16.509Z,73.40
2019-01-03T02:41:23.826Z,55.00
2019-01-03T02:45:36.819Z,60.90
2019-01-03T02:49:44.136Z,65.50
2019-01-03T02:54:06.031Z,50.40
2019-01-03T02:58:11.545Z,72.20
2019-01-03T03:02:18.873Z,64.20
2019-01-03T03:06:42.313Z,59.00
2019-01-03T03:10:58.495Z,59.70
2019-01-03T03:15:14.662Z,71.40
2019-01-03T03:19:37.636Z,64.20
2019-01-03T03:23:56.653Z,62.80
2019-01-03T03:28:06.732Z,59.30
2019-01-03T03:32:16.753Z,73.70
2019-01-03T03:36:24.901Z,80.80
2019-01-03T03:40:50.243Z,64.40
2019-01-03T03:45:06.346Z,58.60
2019-01-03T03:49:22.614Z,82.00
2019-01-03T03:53:42.892Z,60.50
2019-01-03T03:58:06.070Z,66.20
2019-01-03T04:02:29.354Z,55.90
2019-01-03T04:06:51.558Z,66.90
2019-01-03T04:11:07.650Z,55.00
2019-01-03T04:15:14.968Z,66.50
2019-01-03T04:19:38.281Z,57.60
2019-01-03T04:23:54.797Z,51.00
2019-01-03T04:28:02.151Z,59.90
2019-01-03T04:32:18.368Z,68.80
2019-01-03T04:36:25.691Z,59.00
2019-01-03T04:40:33.002Z,66.30
2019-01-03T04:44:43.036Z,69.80
2019-01-03T04:48:50.377Z,72.00
2019-01-03T04:53:09.604Z,66.70
2019-01-03T04:57:25.623Z,53.00
2019-01-03T05:01:56.600Z,69.10
2019-01-03T05:06:15.672Z,55.00
2019-01-03T05:10:25.935Z,55.40
2019-01-03T05:14:45.440Z,75.50
2019-01-03T05:19:07.833Z,67.70
2019-01-03T05:23:31.098Z,65.40
2019-01-03T05:27:38.447Z,66.10
2019-01-03T05:32:03.694Z,67.70
2019-01-03T05:36:09.159Z,65.10
2019-01-03T05:40:29.786Z,67.10
2019-01-03T05:44:39.783Z,65.10
2019-01-03T05:48:51.252Z,66.10
2019-01-03T05:52:59.429Z,70.10
2019-01-03T05:57:12.466Z,60.00
2019-01-03T06:01:35.900Z,70.10
2019-01-03T06:05:59.079Z,74.40
2019-01-03T06:10:11.179Z,62.10
2019-01-03T06:14:18.499Z,61.00
2019-01-03T06:18:25.839Z,57.50
2019-01-03T06:22:44.812Z,57.30
2019-01-03T06:27:08.320Z,54.10
2019-01-03T06:31:19.426Z,55.00
2019-01-03T06:35:42.756Z,57.40
2019-01-03T06:40:06.232Z,59.60
2019-01-03T06:44:19.289Z,67.90
2019-01-03T06:48:26.671Z,65.90
2019-01-03T06:52:34.025Z,71.20
2019-01-03T06:56:56.257Z,78.10
2019-01-03T07:01:03.593Z,76.50
2019-01-03T07:05:26.916Z,75.80
2019-01-03T07:09:50.206Z,75.00
2019-01-03T07:14:03.572Z,67.60
2019-01-03T07:18:13.820Z,75.50
2019-01-03T07:22:28.750Z,74.50
2019-01-03T07:26:52.090Z,72.50
2019-01-03T07:30:57.562Z,71.80
2019-01-03T07:35:07.832Z,75.80
2019-01-03T07:39:23.842Z,62.90
2019-01-03T07:43:37.955Z,72.00
2019-01-03T07:48:01.181Z,73.00
2019-01-03T07:52:14.361Z,71.00
2019-01-03T07:56:37.587Z,77.00
2019-01-03T08:00:51.851Z,73.20
2019-01-03T08:05:02.067Z,73.80
2019-01-03T08:09:15.332Z,75.10
2019-01-03T08:13:20.795Z,70.90
2019-01-03T08:17:28.935Z,54.80
2019-01-03T08:21:48.311Z,55.30
2019-01-03T08:26:13.593Z,58.00
2019-01-03T08:30:38.761Z,76.30
2019-01-03T08:34:48.780Z,54.20
2019-01-03T08:38:58.763Z,49.00
2019-01-03T08:43:08.819Z,52.80
2019-01-03T08:47:31.022Z,54.70
2019-01-03T08:51:54.465Z,59.60
2019-01-03T08:56:01.788Z,69.50
2019-01-03T09:00:09.798Z,81.00
2019-01-03T09:04:18.088Z,70.60
2019-01-03T09:08:41.738Z,67.10
2019-01-03T09:12:49.163Z,65.90
2019-01-03T09:17:00.121Z,68.90
2019-01-03T09:21:07.541Z,69.30
2019-01-03T09:25:32.758Z,56.50
2019-01-03T09:29:55.752Z,75.60
2019-01-03T09:34:21.168Z,65.30
2019-01-03T09:38:32.351Z,69.80
2019-01-03T09:42:45.380Z,61.90
2019-01-03T09:46:51.065Z,64.00
2019-01-03T09:50:56.797Z,61.40
2019-01-03T09:55:02.523Z,56.20
2019-01-03T09:59:08.290Z,51.40
2019-01-03T10:03:13.987Z,65.60
2019-01-03T10:07:19.712Z,53.60
2019-01-03T10:11:25.385Z,52.10
2019-01-03T10:15:31.073Z,53.40
2019-01-03T10:19:36.790Z,49.80
2019-01-03T10:23:42.486Z,51.70
2019-01-03T10:27:48.178Z,52.20
2019-01-03T10:31:53.851Z,54.50
2019-01-03T10:35:59.545Z,52.80
2019-01-03T10:40:07.153Z,55.10
2019-01-03T10:44:13.837Z,53.80
2019-01-03T10:48:19.517Z,50.10
2019-01-03T10:52:25.240Z,69.50
2019-01-03T10:56:30.899Z,59.90
2019-01-03T11:00:36.647Z,46.20
2019-01-03T11:04:42.337Z,48.40
2019-01-03T11:08:48.033Z,53.50
2019-01-03T11:12:53.710Z,46.60
2019-01-03T11:16:59.402Z,49.20
2019-01-03T11:21:05.123Z,44.30
2019-01-03T11:25:10.810Z,43.40
2019-01-03T11:29:16.491Z,46.10
2019-01-03T11:33:22.182Z,50.80
2019-01-03T11:37:27.875Z,45.00
2019-01-03T11:41:33.598Z,55.90
2019-01-03T11:45:42.267Z,55.70
2019-01-03T11:49:47.976Z,52.30
2019-01-03T11:53:53.646Z,47.90
2019-01-03T11:57:59.383Z,52.30
2019-01-03T12:06:29.545Z,60.30
2019-01-03T12:10:36.196Z,46.30
2019-01-03T12:14:41.875Z,61.30
2019-01-03T12:18:47.560Z,54.00
2019-01-03T12:22:53.284Z,46.20
2019-01-03T12:26:58.960Z,49.10
2019-01-03T12:31:04.652Z,55.60
2019-01-03T12:35:10.330Z,57.10
2019-01-03T12:39:16.074Z,58.10
2019-01-03T12:43:21.799Z,53.20
2019-01-03T12:47:27.494Z,50.00
2019-01-03T12:51:33.162Z,52.30
2019-01-03T12:55:38.860Z,52.80
2019-01-03T12:59:44.543Z,52.70
2019-01-03T13:03:50.257Z,61.20
2019-01-03T13:07:55.956Z,62.70
2019-01-03T13:12:01.644Z,55.30
2019-01-03T13:16:07.359Z,63.60
2019-01-03T13:20:13.038Z,66.60
2019-01-03T13:24:18.722Z,78.20
2019-01-03T13:28:24.449Z,64.70
2019-01-03T13:32:30.173Z,64.70
2019-01-03T13:36:35.872Z,68.80
2019-01-03T13:40:41.565Z,60.30
2019-01-03T13:44:47.322Z,61.60
2019-01-03T13:48:53.004Z,73.80
2019-01-03T13:52:58.691Z,75.60
2019-01-03T13:57:04.388Z,65.70
2019-01-03T14:01:10.091Z,65.40
2019-01-03T14:05:15.789Z,69.90
2019-01-03T14:09:21.453Z,76.20
2019-01-03T14:19:50.198Z,74.10
2019-01-03T14:23:55.933Z,71.30
2019-01-03T14:28:49.839Z,70.70
2019-01-03T14:32:55.524Z,69.80
2019-01-03T14:37:03.804Z,75.50
2019-01-03T14:41:09.519Z,71.80
2019-01-03T14:45:15.229Z,70.60
2019-01-03T14:49:21.502Z,78.50
2019-01-03T14:53:27.258Z,70.70
2019-01-03T14:57:32.956Z,78.40
2019-01-03T15:01:38.638Z,71.20
2019-01-03T15:05:44.313Z,72.30
2019-01-03T15:09:49.994Z,80.40
2019-01-03T15:13:55.708Z,85.00
2019-01-03T15:18:01.407Z,84.20
2019-01-03T15:22:07.153Z,79.20
2019-01-03T15:26:14.663Z,79.70
2019-01-03T15:30:20.416Z,81.50
2019-01-03T15:34:26.090Z,91.10
2019-01-03T15:38:31.789Z,76.40
2019-01-03T15:42:37.464Z,83.40
2019-01-03T15:46:43.150Z,83.80
2019-01-03T15:50:48.905Z,83.10
2019-01-03T15:54:54.675Z,74.00
2019-01-03T15:59:00.373Z,81.60
2019-01-03T16:03:06.068Z,79.40
2019-01-03T16:07:11.765Z,79.40
2019-01-03T16:11:17.462Z,88.70
2019-01-03T16:15:23.190Z,79.90
2019-01-03T16:19:28.933Z,81.00
2019-01-03T16:23:34.611Z,70.60
2019-01-03T16:27:40.355Z,81.20
2019-01-03T16:31:46.174Z,75.10
2019-01-03T16:35:51.908Z,77.50
2019-01-03T16:39:57.843Z,86.70
2019-01-03T16:44:03.672Z,89.70
2019-01-03T16:48:09.369Z,73.50
2019-01-03T16:52:15.056Z,70.70
2019-01-03T16:56:20.775Z,70.70
2019-01-03T17:00:26.453Z,78.60
2019-01-03T17:04:32.214Z,80.80
2019-01-03T17:08:37.919Z,73.50
2019-01-03T17:12:43.607Z,74.20
2019-01-03T17:16:49.305Z,84.20
2019-01-03T17:20:54.980Z,74.30
2019-01-03T17:25:00.683Z,75.00
2019-01-03T17:29:06.359Z,84.70
2019-01-03T17:33:12.087Z,73.90
2019-01-03T17:37:17.825Z,81.80
2019-01-03T17:41:23.501Z,78.20
2019-01-03T17:45:29.231Z,78.40
2019-01-03T17:49:34.897Z,87.00
2019-01-03T17:53:40.590Z,91.80
2019-01-03T17:57:46.269Z,80.80
2019-01-03T18:01:53.258Z,81.00
2019-01-03T18:05:58.965Z,66.50
2019-01-03T18:10:07.505Z,73.90
2019-01-03T18:14:13.223Z,72.70
2019-01-03T18:18:18.885Z,77.90
2019-01-03T18:22:24.616Z,77.40
2019-01-03T18:26:30.313Z,77.00
2019-01-03T18:30:36.110Z,90.30
2019-01-03T18:34:41.812Z,79.40
2019-01-03T18:38:47.571Z,77.90
2019-01-03T18:42:53.282Z,81.10
2019-01-03T18:46:59.044Z,78.40
2019-01-03T18:51:04.740Z,80.00
2019-01-03T18:55:10.607Z,87.30
2019-01-03T18:59:16.311Z,74.90
2019-01-03T19:03:22.084Z,79.30
2019-01-03T19:07:28.778Z,80.00
2019-01-03T19:11:34.733Z,79.00
2019-01-03T19:15:40.539Z,86.20
2019-01-03T19:19:47.248Z,86.10
2019-01-03T19:23:55.439Z,86.10
2019-01-03T19:28:01.433Z,74.90
2019-01-03T19:32:08.648Z,75.40
2019-01-03T19:36:14.352Z,77.00
2019-01-03T19:40:20.049Z,76.60
2019-01-03T19:44:25.773Z,87.00
2019-01-03T19:48:31.510Z,77.80
2019-01-03T19:52:37.233Z,79.50
2019-01-03T19:56:42.955Z,85.40
2019-01-03T20:00:48.661Z,90.60
2019-01-03T20:04:54.367Z,85.80
2019-01-03T20:09:00.103Z,78.70
2019-01-03T20:13:05.914Z,80.50
2019-01-03T20:17:11.650Z,77.80
2019-01-03T20:21:17.422Z,81.90
2019-01-03T20:25:23.224Z,77.70
2019-01-03T20:29:31.830Z,82.00
2019-01-03T20:33:37.556Z,77.20
2019-01-03T20:37:43.406Z,75.10
2019-01-03T20:41:49.106Z,79.80
2019-01-03T20:45:54.892Z,85.70
2019-01-03T20:50:00.567Z,79.00
2019-01-03T20:54:06.398Z,78.20
2019-01-03T20:58:12.137Z,77.30
2019-01-03T21:02:17.868Z,78.60
2019-01-03T21:06:23.571Z,75.90
2019-01-03T21:10:29.266Z,88.30
2019-01-03T21:14:34.998Z,80.40
2019-01-03T21:18:40.820Z,81.70
2019-01-03T21:22:46.600Z,78.20
2019-01-03T21:26:54.947Z,79.40
2019-01-03T21:31:00.811Z,80.90
2019-01-03T21:35:07.072Z,84.70
2019-01-03T21:39:12.843Z,75.60
2019-01-03T21:43:18.649Z,75.70
2019-01-03T21:47:24.413Z,76.30
2019-01-03T21:51:31.657Z,75.50
2019-01-03T21:55:37.359Z,77.60
2019-01-03T21:59:43.088Z,78.10
2019-01-03T22:03:48.814Z,77.10
2019-01-03T22:07:54.485Z,74.50
2019-01-03T22:12:00.202Z,78.20
2019-01-03T22:16:05.984Z,76.90
2019-01-03T22:20:11.703Z,79.50
2019-01-03T22:24:17.391Z,75.60
2019-01-03T22:28:23.093Z,79.70
2019-01-03T22:32:28.837Z,75.50
2019-01-03T22:36:34.537Z,74.30
2019-01-03T22:40:40.245Z,76.80
2019-01-03T22:44:45.949Z,75.20
2019-01-03T22:48:51.626Z,82.90
2019-01-03T22:52:57.343Z,74.80
2019-01-03T22:57:03.061Z,79.40
2019-01-03T23:01:09.795Z,82.40
2019-01-03T23:05:15.500Z,79.60
2019-01-03T23:09:21.209Z,74.00
2019-01-03T23:13:51.007Z,73.40
2019-01-03T23:17:56.787Z,73.60
2019-01-03T23:22:02.495Z,73.60
2019-01-03T23:26:08.233Z,75.40
2019-01-03T23:30:14.064Z,74.20
2019-01-03T23:34:19.759Z,78.50
2019-01-03T23:38:25.456Z,77.20
2019-01-03T23:42:31.193Z,72.20
2019-01-03T23:46:36.972Z,74.80
2019-01-03T23:50:42.695Z,73.30
2019-01-03T23:54:48.415Z,78.20
2019-01-03T23:58:54.106Z,73.30
